EGSS/STN METAR and TAF weather

Enter ICAO airport designator
Station Type Date Time Source
EGSS METAR 2019/12/09 05:50 UTC NOAA

EGSS 090550Z AUTO 30009KT 9999 SCT009 BKN037 06/05 Q0995


Station Type Date Time Source
EGSS Decoded METAR 2019/12/09 05:50 UTC NOAA

Stansted Airport, United Kingdom (EGSS) 51-53N 000-14E 0M
Dec 09, 2019 - 12:50 AM EST / 2019.12.09 0550 UTC
Wind: from the WNW (300 degrees) at 10 MPH (9 KT):0
Visibility: greater than 7 mile(s):0
Sky conditions: mostly cloudy
Temperature: 42 F (6 C)
Dew Point: 41 F (5 C)
Relative Humidity: 93%
Pressure (altimeter): 29.38 in. Hg (0995 hPa)
ob: EGSS 090550Z AUTO 30009KT 9999 SCT009 BKN037 06/05 Q0995
cycle: 6

Station Type Date Time Source
EGSS TAF 2019/12/09 06:09 UTC NOAA

TAF
AMD TAF
AMD EGSS 090606Z 0906/1012 30012KT 9999 BKN008
BECMG 0906/0909 32020G30KT FEW025 PROB30
TEMPO 0906/0912 6000 SHRA
BECMG 0912/0915 31014KT
BECMG 0918/0921 25006KT
BECMG 1003/1006 18012KT
BECMG 1009/1012 19022KT PROB30
TEMPO 1010/1012 19025G35KT 6000 RA

Example: see airport list